Time;durP1;ratioP1;P1;durP2;ratioP2;P2;SDS_P1;SDS_P2;PMS_P1;PMS_P2;Temp;Humidity;BMP_temperature;BMP_pressure;BME280_temperature;BME280_humidity;BME280_pressure;Samples;Min_cycle;Max_cycle;Signal;HPM_P1;HPM_P2
2022/11/03 06:35:34;;;;;;;6.30;3.53;;;3.50;99.90;;;;;;5139040;27;20273;-83
2022/11/03 07:22:51;;;;;;;10.50;5.10;;;4.90;99.90;;;;;;5121469;27;20639;-83
2022/11/03 07:25:19;;;;;;;6.33;4.70;;;5.00;99.90;;;;;;5094440;28;20415;-83
2022/11/03 07:27:49;;;;;;;8.13;4.60;;;5.10;99.90;;;;;;5077172;28;20181;-83
2022/11/03 07:30:32;;;;;;;7.57;5.43;;;5.20;99.90;;;;;;5078742;28;20565;-83
2022/11/03 07:33:09;;;;;;;5.27;4.30;;;5.30;99.90;;;;;;5074916;28;20438;-85
2022/11/03 07:35:44;;;;;;;6.60;4.17;;;5.40;99.90;;;;;;5074327;28;20314;-82
2022/11/03 07:38:14;;;;;;;5.20;3.70;;;5.50;99.90;;;;;;5073800;28;20169;-82
2022/11/03 07:40:41;;;;;;;8.00;4.00;;;5.60;99.90;;;;;;5075813;28;20451;-82
2022/11/03 07:43:14;;;;;;;8.90;3.73;;;5.90;99.90;;;;;;5074822;28;20193;-81
2022/11/03 07:45:40;;;;;;;5.93;3.57;;;6.20;99.90;;;;;;5073635;28;20427;-82
2022/11/03 07:48:55;;;;;;;5.90;3.60;;;6.60;99.90;;;;;;5073233;28;20176;-83
2022/11/03 07:51:37;;;;;;;6.40;3.80;;;7.40;99.90;;;;;;5069193;28;20205;-82
2022/11/03 07:54:14;;;;;;;8.03;2.97;;;8.20;99.90;;;;;;5072111;28;20562;-83
2022/11/03 07:56:44;;;;;;;9.53;4.27;;;8.70;99.90;;;;;;5075916;28;20180;-84
2022/11/03 07:59:10;;;;;;;5.50;3.60;;;9.30;99.90;;;;;;5072597;28;20181;-83
2022/11/03 08:01:41;;;;;;;8.63;3.93;;;9.80;99.90;;;;;;5074710;28;20199;-83
2022/11/03 08:04:11;;;;;;;5.70;3.70;;;10.20;99.90;;;;;;5072039;28;20199;-82
2022/11/03 08:06:37;;;;;;;5.77;2.90;;;10.70;99.90;;;;;;5072900;28;20193;-83
2022/11/03 08:09:03;;;;;;;9.87;3.57;;;10.70;99.90;;;;;;5075686;28;20243;-83
2022/11/03 08:11:29;;;;;;;9.00;3.37;;;10.70;99.90;;;;;;5073290;28;20639;-81
2022/11/03 08:13:55;;;;;;;5.27;3.00;;;10.90;99.90;;;;;;5072573;28;20200;-82
2022/11/03 08:16:21;;;;;;;6.97;3.03;;;11.50;99.90;;;;;;5074539;28;20173;-82
2022/11/03 08:18:46;;;;;;;4.80;3.10;;;12.20;99.90;;;;;;5073406;28;20179;-82
2022/11/03 08:21:13;;;;;;;8.43;2.90;;;12.50;99.90;;;;;;5071368;28;20213;-82
2022/11/03 08:23:39;;;;;;;12.40;4.07;;;12.70;99.90;;;;;;5072511;28;20204;-82
2022/11/03 08:26:04;;;;;;;5.83;3.30;;;13.00;99.90;;;;;;5073229;28;20222;-82
2022/11/03 08:28:32;;;;;;;5.97;2.60;;;13.00;99.90;;;;;;5074193;28;20546;-82
2022/11/03 08:31:00;;;;;;;10.53;3.00;;;12.90;99.90;;;;;;5071296;28;20208;-82
2022/11/03 08:33:27;;;;;;;5.70;3.77;;;12.60;99.90;;;;;;5062005;28;20602;-83
2022/11/03 08:35:53;;;;;;;7.93;4.10;;;12.20;99.90;;;;;;5057562;28;20181;-81
2022/11/03 08:38:19;;;;;;;8.90;5.30;;;12.00;99.90;;;;;;5058845;28;20173;-81
2022/11/03 08:40:44;;;;;;;10.57;6.27;;;12.40;99.90;;;;;;5057388;28;20201;-82
2022/11/03 08:43:10;;;;;;;13.40;7.97;;;12.70;99.90;;;;;;5058619;28;20202;-83
2022/11/03 08:45:35;;;;;;;14.83;8.07;;;13.10;99.90;;;;;;5057146;28;20174;-82
2022/11/03 08:48:02;;;;;;;13.83;6.40;;;13.10;99.90;;;;;;5057024;28;20178;-82
2022/11/03 08:50:27;;;;;;;21.60;11.90;;;13.30;99.90;;;;;;5056488;28;20654;-81
2022/11/03 08:52:53;;;;;;;11.57;5.70;;;12.80;99.90;;;;;;5057600;28;20194;-82
2022/11/03 08:55:19;;;;;;;14.80;8.83;;;12.70;99.90;;;;;;5057146;28;20173;-82
2022/11/03 08:57:45;;;;;;;11.47;8.37;;;12.70;99.90;;;;;;5058871;28;20176;-83
2022/11/03 09:00:11;;;;;;;11.17;6.83;;;12.70;99.90;;;;;;5058322;28;20188;-84
2022/11/03 09:02:37;;;;;;;13.43;6.80;;;12.80;99.90;;;;;;5059957;28;20552;-81
2022/11/03 09:05:04;;;;;;;8.00;4.83;;;13.00;99.90;;;;;;5057843;28;20174;-83
2022/11/03 09:07:30;;;;;;;5.57;4.00;;;13.30;99.90;;;;;;5058328;28;20653;-83
2022/11/03 09:09:56;;;;;;;5.80;3.63;;;13.70;99.90;;;;;;5058223;28;20184;-84
2022/11/03 09:12:22;;;;;;;7.23;4.90;;;13.80;99.90;;;;;;5057778;28;20216;-84
2022/11/03 09:14:47;;;;;;;5.03;3.60;;;14.30;99.90;;;;;;5059444;28;20538;-83
2022/11/03 09:17:13;;;;;;;8.17;4.87;;;14.80;99.90;;;;;;5057546;28;20266;-83
2022/11/03 09:19:39;;;;;;;9.00;5.53;;;15.40;99.90;;;;;;5059745;28;20222;-84
2022/11/03 09:22:04;;;;;;;8.30;3.30;;;15.90;99.90;;;;;;5058873;28;20200;-83
2022/11/03 09:24:30;;;;;;;5.43;3.33;;;15.90;99.90;;;;;;5058016;28;20281;-84
2022/11/03 09:26:56;;;;;;;6.83;5.00;;;15.80;99.90;;;;;;5059419;28;20209;-84
2022/11/03 09:29:21;;;;;;;4.67;3.40;;;15.20;99.90;;;;;;5058339;28;20182;-83
2022/11/03 09:31:47;;;;;;;8.57;3.10;;;14.50;99.90;;;;;;5061212;28;20194;-84
2022/11/03 09:34:13;;;;;;;3.13;2.30;;;14.60;99.90;;;;;;5060024;28;20540;-83
2022/11/03 09:36:39;;;;;;;6.60;3.00;;;14.80;99.90;;;;;;5059664;28;20173;-83
2022/11/03 09:39:04;;;;;;;7.53;2.80;;;15.40;99.90;;;;;;5059731;28;20262;-83
2022/11/03 09:41:31;;;;;;;4.00;2.70;;;15.50;99.90;;;;;;5057982;28;20182;-84
2022/11/03 09:43:58;;;;;;;3.40;2.50;;;15.50;99.90;;;;;;5058586;28;20193;-84
2022/11/03 09:46:24;;;;;;;3.13;2.30;;;15.50;99.90;;;;;;5059600;28;20193;-81
2022/11/03 09:48:50;;;;;;;3.83;2.20;;;15.40;99.90;;;;;;5058596;28;20249;-83
2022/11/03 09:51:20;;;;;;;4.13;2.20;;;15.30;99.90;;;;;;5058338;28;20252;-84
2022/11/03 09:53:47;;;;;;;4.33;2.10;;;15.50;99.90;;;;;;5057652;28;20720;-81
2022/11/03 09:56:14;;;;;;;3.87;2.20;;;15.80;99.90;;;;;;5057782;28;20174;-84
2022/11/03 09:58:40;;;;;;;4.37;2.40;;;16.00;99.90;;;;;;5057277;28;20178;-84
2022/11/03 10:01:09;;;;;;;3.97;2.30;;;16.30;99.90;;;;;;5057485;28;20173;-81
2022/11/03 10:03:35;;;;;;;3.00;1.90;;;16.40;99.90;;;;;;5059417;28;20194;-84
2022/11/03 10:06:01;;;;;;;4.17;2.03;;;16.20;99.90;;;;;;5057891;28;20184;-84
2022/11/03 10:08:30;;;;;;;5.73;2.80;;;16.20;99.90;;;;;;5040178;28;20208;-82
2022/11/03 10:10:57;;;;;;;3.20;2.30;;;16.50;99.90;;;;;;5061296;28;20242;-82
2022/11/03 10:13:32;;;;;;;6.33;2.30;;;16.70;99.90;;;;;;5057681;28;20525;-81
2022/11/03 10:16:00;;;;;;;9.63;3.00;;;17.10;99.90;;;;;;5059719;28;20185;-84
2022/11/03 10:18:27;;;;;;;3.20;2.37;;;17.50;99.90;;;;;;5059334;28;20173;-85
2022/11/03 10:20:53;;;;;;;7.73;2.30;;;17.60;99.90;;;;;;5057984;28;20197;-85
2022/11/03 10:23:19;;;;;;;3.93;2.30;;;17.30;99.90;;;;;;5057577;28;20197;-86
2022/11/03 10:25:45;;;;;;;7.07;2.60;;;17.30;99.90;;;;;;5058966;28;20262;-85
2022/11/03 10:28:23;;;;;;;4.47;2.30;;;17.20;99.90;;;;;;5057618;28;20177;-83
2022/11/03 10:30:51;;;;;;;5.00;2.90;;;17.00;99.90;;;;;;5060741;28;20234;-81
2022/11/03 10:33:34;;;;;;;3.60;2.37;;;17.00;99.90;;;;;;5057558;28;20240;-84
2022/11/03 10:36:20;;;;;;;5.27;2.80;;;17.20;99.90;;;;;;5056519;28;20577;-83
2022/11/03 10:38:47;;;;;;;7.03;3.50;;;17.60;99.90;;;;;;5057786;28;20163;-85
2022/11/03 10:41:27;;;;;;;6.90;2.87;;;18.10;99.90;;;;;;5056984;28;20187;-84
2022/11/03 10:44:04;;;;;;;5.47;2.53;;;18.50;99.90;;;;;;5057777;28;20251;-82
2022/11/03 10:46:32;;;;;;;8.43;2.80;;;18.60;99.90;;;;;;5057392;28;20207;-81
2022/11/03 10:49:11;;;;;;;6.27;2.50;;;18.80;99.90;;;;;;5057529;28;20179;-82
2022/11/03 10:51:37;;;;;;;5.77;2.30;;;18.70;99.90;;;;;;5057935;28;20192;-82
2022/11/03 10:54:04;;;;;;;7.97;3.13;;;18.60;99.90;;;;;;5057599;28;20207;-83
2022/11/03 10:56:34;;;;;;;7.53;2.50;;;18.60;99.90;;;;;;5057786;28;20211;-81
2022/11/03 10:59:01;;;;;;;7.03;3.07;;;18.50;99.90;;;;;;5056332;28;20184;-81
2022/11/03 11:01:27;;;;;;;3.27;2.70;;;18.40;99.90;;;;;;5056752;28;20178;-84
2022/11/03 11:03:54;;;;;;;6.73;2.80;;;18.70;99.90;;;;;;5056680;28;20667;-83
2022/11/03 11:06:23;;;;;;;6.07;2.90;;;19.10;99.90;;;;;;5057752;28;20196;-81
2022/11/03 11:08:53;;;;;;;3.37;2.20;;;19.50;99.90;;;;;;5057494;28;20243;-83
2022/11/03 11:11:20;;;;;;;7.90;2.33;;;19.90;99.90;;;;;;5056009;28;20254;-80
2022/11/03 11:14:24;;;;;;;5.13;2.00;;;20.20;99.90;;;;;;5057205;28;20239;-83
2022/11/03 11:16:57;;;;;;;5.73;2.53;;;20.30;99.90;;;;;;5068370;28;20241;-82
2022/11/03 11:19:25;;;;;;;3.33;2.60;;;20.20;99.90;;;;;;5067405;28;20164;-83
2022/11/03 11:21:53;;;;;;;4.03;2.00;;;20.20;99.90;;;;;;5060716;28;20557;-82
2022/11/03 11:24:44;;;;;;;3.10;2.13;;;20.20;99.90;;;;;;5060759;28;20193;-82
2022/11/03 11:27:31;;;;;;;6.43;4.00;;;20.20;99.90;;;;;;5060215;28;20543;-82
2022/11/03 11:30:04;;;;;;;10.50;5.97;;;20.00;99.90;;;;;;5061201;28;20646;-84
2022/11/03 11:32:38;;;;;;;7.77;4.40;;;19.70;99.90;;;;;;5060086;28;20552;-85
2022/11/03 11:35:09;;;;;;;4.77;2.37;;;19.50;99.90;;;;;;5060591;28;20656;-84
2022/11/03 11:37:37;;;;;;;7.47;2.53;;;19.30;99.90;;;;;;5060632;28;20170;-83
2022/11/03 11:40:33;;;;;;;4.13;2.37;;;19.50;99.90;;;;;;5059832;28;20179;-84
2022/11/03 11:43:02;;;;;;;5.23;2.30;;;19.00;99.90;;;;;;5061494;28;20207;-86
2022/11/03 11:46:06;;;;;;;2.53;2.00;;;18.40;99.90;;;;;;5060883;28;20173;-83
2022/11/03 11:48:33;;;;;;;4.50;2.97;;;17.90;99.90;;;;;;5060786;28;20178;-84
2022/11/03 11:51:00;;;;;;;4.03;2.20;;;17.60;99.90;;;;;;5060988;28;20198;-82
2022/11/03 11:53:27;;;;;;;4.70;2.50;;;17.40;99.90;;;;;;5060880;28;20204;-80
2022/11/03 11:55:56;;;;;;;3.90;2.10;;;17.40;99.90;;;;;;5059334;28;20174;-82
2022/11/03 11:58:39;;;;;;;3.43;2.27;;;17.60;99.90;;;;;;5058060;28;20590;-81
2022/11/03 12:01:18;;;;;;;4.70;2.20;;;17.70;99.90;;;;;;5062007;28;20189;-83
2022/11/03 12:03:45;;;;;;;3.33;2.47;;;17.80;99.90;;;;;;5059823;28;20201;-84
2022/11/03 12:06:14;;;;;;;4.40;2.10;;;17.70;99.90;;;;;;5059299;28;20201;-83
2022/11/03 12:08:41;;;;;;;5.43;2.50;;;17.60;99.90;;;;;;5061079;28;20188;-84
2022/11/03 12:11:09;;;;;;;3.80;2.10;;;17.60;99.90;;;;;;5063743;28;20205;-84
2022/11/03 12:13:46;;;;;;;4.67;2.60;;;17.60;99.90;;;;;;5062279;28;20193;-83
2022/11/03 12:16:35;;;;;;;6.37;2.90;;;17.90;99.90;;;;;;5065298;28;20701;-84
2022/11/03 12:19:32;;;;;;;7.87;2.73;;;18.70;99.90;;;;;;5063880;28;20260;-85
2022/11/03 12:21:58;;;;;;;3.77;2.40;;;18.60;99.90;;;;;;5062467;28;20220;-81
2022/11/03 12:24:44;;;;;;;5.20;2.60;;;18.00;99.90;;;;;;5067381;28;20509;-84
2022/11/03 12:27:23;;;;;;;4.20;2.50;;;17.60;99.90;;;;;;5063627;28;20174;-83
2022/11/03 12:29:52;;;;;;;11.67;2.50;;;17.40;99.90;;;;;;5063119;28;20273;-83
2022/11/03 12:32:18;;;;;;;4.57;2.90;;;17.20;99.90;;;;;;5062270;28;20284;-84
2022/11/03 12:34:44;;;;;;;9.00;2.30;;;16.90;99.90;;;;;;5063583;28;20201;-83
2022/11/03 12:37:10;;;;;;;4.83;2.50;;;16.80;99.90;;;;;;5062782;28;20256;-84
2022/11/03 12:39:36;;;;;;;3.17;2.47;;;16.70;99.90;;;;;;5062422;28;20216;-81
2022/11/03 12:42:02;;;;;;;7.57;2.23;;;16.50;99.90;;;;;;5061190;28;20259;-83
2022/11/03 12:44:27;;;;;;;3.53;2.10;;;16.40;99.90;;;;;;5062276;28;20268;-84
2022/11/03 12:46:53;;;;;;;4.03;2.43;;;16.20;99.90;;;;;;5061774;28;20177;-84
2022/11/03 12:49:19;;;;;;;3.80;2.30;;;16.30;99.90;;;;;;5061443;28;20185;-82
2022/11/03 12:51:45;;;;;;;6.63;2.63;;;16.30;99.90;;;;;;5062073;28;20261;-83
2022/11/03 12:54:10;;;;;;;3.37;2.67;;;16.30;99.90;;;;;;5062455;28;20214;-83
2022/11/03 12:56:36;;;;;;;5.93;2.90;;;16.40;99.90;;;;;;5062931;28;20180;-83
2022/11/03 12:59:01;;;;;;;5.17;3.07;;;16.30;99.90;;;;;;5062288;28;20171;-84
2022/11/03 13:01:27;;;;;;;3.20;2.27;;;16.10;99.90;;;;;;5060986;28;20204;-83
2022/11/03 13:03:53;;;;;;;5.33;2.77;;;16.00;99.90;;;;;;5061591;28;20206;-85
2022/11/03 13:06:18;;;;;;;6.43;2.87;;;15.90;99.90;;;;;;5061655;28;20178;-82
2022/11/03 13:08:45;;;;;;;6.33;2.70;;;15.80;99.90;;;;;;5061255;28;20277;-82
2022/11/03 13:13:55;;;;;;;6.70;2.53;;;15.60;99.90;;;;;;5063910;28;20207;-84
2022/11/03 13:16:21;;;;;;;3.43;2.60;;;15.60;99.90;;;;;;5062366;28;20187;-84
2022/11/03 13:18:47;;;;;;;4.00;2.63;;;15.50;99.90;;;;;;5064291;28;20645;-84
2022/11/03 13:21:13;;;;;;;9.23;3.13;;;15.50;99.90;;;;;;5061548;28;20195;-83
2022/11/03 13:23:40;;;;;;;9.20;4.03;;;15.40;99.90;;;;;;5061517;28;20550;-84
2022/11/03 13:26:05;;;;;;;4.93;3.47;;;15.30;99.90;;;;;;5062236;28;20183;-82
2022/11/03 13:28:31;;;;;;;12.43;3.57;;;15.20;99.90;;;;;;5060966;28;20173;-84
2022/11/03 13:30:57;;;;;;;5.93;3.67;;;15.20;99.90;;;;;;5062717;28;20225;-83
2022/11/03 13:33:22;;;;;;;4.90;2.93;;;15.10;99.90;;;;;;5062994;28;20197;-85
2022/11/03 13:35:48;;;;;;;6.77;2.80;;;15.10;99.90;;;;;;5064229;28;20169;-84
2022/11/03 13:38:14;;;;;;;5.60;2.77;;;15.10;99.90;;;;;;5062298;28;20197;-83
2022/11/03 13:40:39;;;;;;;4.37;3.20;;;15.10;99.90;;;;;;5061873;28;20192;-84
2022/11/03 13:43:05;;;;;;;4.57;2.70;;;15.00;99.90;;;;;;5060889;28;20201;-84
2022/11/03 13:45:31;;;;;;;5.97;2.97;;;15.00;99.90;;;;;;5061508;28;20213;-84
2022/11/03 13:47:56;;;;;;;10.73;2.77;;;14.90;99.90;;;;;;5061135;28;20697;-84
2022/11/03 13:50:22;;;;;;;5.87;3.07;;;15.00;99.90;;;;;;5061947;28;20185;-85
2022/11/03 13:52:48;;;;;;;5.00;2.87;;;14.90;99.90;;;;;;5061477;28;20220;-84
2022/11/03 13:55:14;;;;;;;9.17;2.70;;;14.90;99.90;;;;;;5064310;28;20211;-85
2022/11/03 13:57:40;;;;;;;4.40;2.40;;;14.80;99.90;;;;;;5062192;28;20184;-85
2022/11/03 14:00:07;;;;;;;5.00;2.30;;;14.60;99.90;;;;;;5063791;28;20212;-85
2022/11/03 14:02:33;;;;;;;4.03;2.57;;;14.50;99.90;;;;;;5061989;28;20202;-85
2022/11/03 14:04:59;;;;;;;6.20;2.50;;;14.50;99.90;;;;;;5063253;28;20177;-83
2022/11/03 14:07:25;;;;;;;6.57;3.20;;;14.40;99.90;;;;;;5073983;28;20165;-84
2022/11/03 14:09:51;;;;;;;5.70;2.80;;;14.30;99.90;;;;;;5062137;28;20217;-86
2022/11/03 14:12:33;;;;;;;5.37;2.70;;;14.30;99.90;;;;;;5060063;28;20271;-84
2022/11/03 14:15:07;;;;;;;6.77;2.70;;;14.20;99.90;;;;;;5061707;28;20151;-84
2022/11/03 14:17:34;;;;;;;4.87;3.37;;;14.10;99.90;;;;;;5060945;28;20165;-84
2022/11/03 14:20:01;;;;;;;5.37;2.77;;;14.00;99.90;;;;;;5059112;28;20181;-83
2022/11/03 14:22:26;;;;;;;4.73;2.40;;;14.00;99.90;;;;;;5058721;28;20263;-84
2022/11/03 14:24:52;;;;;;;5.63;3.10;;;13.90;99.90;;;;;;5059419;28;20181;-84
2022/11/03 14:27:19;;;;;;;4.27;2.47;;;13.90;99.90;;;;;;5059636;28;20202;-84
2022/11/03 14:29:48;;;;;;;6.17;2.70;;;13.80;99.90;;;;;;5058509;28;20205;-84
2022/11/03 14:32:14;;;;;;;8.67;2.70;;;13.70;99.90;;;;;;5057346;28;20324;-84
2022/11/03 14:34:39;;;;;;;8.93;3.30;;;13.70;99.90;;;;;;5061883;28;20181;-83
2022/11/03 14:37:07;;;;;;;19.67;8.97;;;13.60;99.90;;;;;;5059267;28;20178;-84
2022/11/03 14:39:35;;;;;;;16.57;6.27;;;13.60;99.90;;;;;;5059113;28;20178;-82
2022/11/03 14:42:04;;;;;;;19.00;7.83;;;13.60;99.90;;;;;;5059546;28;20193;-85
2022/11/03 14:44:35;;;;;;;16.13;6.17;;;13.50;99.90;;;;;;5059126;28;20235;-85
2022/11/03 14:47:02;;;;;;;16.17;6.50;;;13.50;99.90;;;;;;5059858;28;20659;-85
2022/11/03 14:49:33;;;;;;;12.47;5.87;;;13.40;99.90;;;;;;5059633;28;20177;-83
2022/11/03 14:52:02;;;;;;;8.87;4.57;;;13.30;99.90;;;;;;5059688;28;20334;-83
2022/11/03 14:54:30;;;;;;;16.40;7.53;;;13.30;99.90;;;;;;5059934;28;20171;-85
2022/11/03 14:56:56;;;;;;;7.37;4.53;;;13.20;99.90;;;;;;5059466;28;20174;-83
2022/11/03 14:59:22;;;;;;;5.03;3.13;;;13.00;99.90;;;;;;5058369;28;20590;-83
2022/11/03 15:01:50;;;;;;;11.20;3.60;;;13.00;99.90;;;;;;5058204;28;20273;-83
2022/11/03 15:04:16;;;;;;;9.27;3.30;;;12.90;99.90;;;;;;5057236;28;20185;-81
2022/11/03 15:06:43;;;;;;;6.57;3.70;;;12.80;99.90;;;;;;5058363;28;20178;-81
2022/11/03 15:09:10;;;;;;;10.23;4.43;;;12.70;99.90;;;;;;5055754;28;20185;-82
2022/11/03 15:11:36;;;;;;;5.23;3.60;;;12.60;99.90;;;;;;5056928;28;20209;-86
2022/11/03 15:14:02;;;;;;;9.40;3.73;;;12.60;99.90;;;;;;5058425;28;20606;-83
2022/11/03 15:16:28;;;;;;;8.50;3.53;;;12.50;99.90;;;;;;5060710;28;20181;-84
2022/11/03 15:18:53;;;;;;;7.63;3.40;;;12.50;99.90;;;;;;5059998;28;20180;-85
2022/11/03 15:21:19;;;;;;;7.37;4.13;;;12.40;99.90;;;;;;5058735;28;20601;-84
2022/11/03 15:23:45;;;;;;;5.03;3.40;;;12.40;99.90;;;;;;5058196;28;20234;-86
2022/11/03 15:26:13;;;;;;;7.07;3.53;;;12.40;99.90;;;;;;5057720;28;20272;-85
2022/11/03 15:28:41;;;;;;;13.53;5.93;;;12.40;99.90;;;;;;5058113;28;20591;-86
2022/11/03 15:31:07;;;;;;;17.90;7.50;;;12.40;99.90;;;;;;5057721;28;20217;-83
2022/11/03 15:33:32;;;;;;;8.40;6.37;;;12.40;99.90;;;;;;5058134;28;20202;-83
2022/11/03 15:35:58;;;;;;;50.20;10.30;;;12.30;99.90;;;;;;5056984;28;20177;-84
2022/11/03 15:38:24;;;;;;;24.30;8.87;;;12.30;99.90;;;;;;5058292;28;20181;-83
2022/11/03 15:40:49;;;;;;;9.53;5.27;;;12.30;99.90;;;;;;5058680;28;20628;-84
2022/11/03 15:43:15;;;;;;;10.63;5.03;;;12.20;99.90;;;;;;5058825;28;20572;-85
2022/11/03 15:45:41;;;;;;;13.50;6.20;;;12.20;99.90;;;;;;5061500;28;20528;-85
2022/11/03 15:48:07;;;;;;;11.03;5.17;;;12.10;99.90;;;;;;5062033;28;20181;-85
2022/11/03 15:50:32;;;;;;;15.60;5.57;;;12.10;99.90;;;;;;5061049;28;20692;-85
2022/11/03 15:52:58;;;;;;;12.83;5.73;;;12.10;99.90;;;;;;5062695;28;20236;-84
2022/11/03 15:55:24;;;;;;;9.23;4.83;;;12.00;99.90;;;;;;5063339;28;20539;-84
2022/11/03 15:57:51;;;;;;;10.10;4.47;;;12.00;99.90;;;;;;5061115;28;20196;-83
2022/11/03 16:00:18;;;;;;;15.73;5.13;;;11.90;99.90;;;;;;5062607;28;20166;-84
2022/11/03 16:02:45;;;;;;;10.07;4.57;;;11.90;99.90;;;;;;5060835;28;20544;-82
2022/11/03 16:05:11;;;;;;;10.17;4.80;;;11.90;99.90;;;;;;5060328;28;20182;-84
2022/11/03 16:07:37;;;;;;;7.43;4.67;;;11.90;99.90;;;;;;5062025;28;20250;-84
2022/11/03 16:10:03;;;;;;;7.40;4.23;;;11.80;99.90;;;;;;5061078;28;20192;-83
2022/11/03 16:12:28;;;;;;;9.87;4.57;;;11.80;99.90;;;;;;5061821;28;20267;-84
2022/11/03 16:14:54;;;;;;;12.10;5.20;;;11.80;99.90;;;;;;5061136;28;20177;-82
2022/11/03 16:17:23;;;;;;;9.43;4.70;;;11.70;99.90;;;;;;5062007;28;20174;-83
2022/11/03 16:19:49;;;;;;;9.10;4.83;;;11.70;99.90;;;;;;5060735;28;20233;-84
2022/11/03 16:22:15;;;;;;;9.50;5.20;;;11.60;99.90;;;;;;5062213;28;20220;-85
2022/11/03 16:24:43;;;;;;;10.93;5.07;;;11.60;99.90;;;;;;5061384;28;20185;-84
2022/11/03 16:27:09;;;;;;;7.73;4.47;;;11.60;99.90;;;;;;5062889;28;20170;-82
2022/11/03 16:29:35;;;;;;;9.03;3.60;;;11.50;99.90;;;;;;5061892;28;20215;-83
2022/11/03 16:32:00;;;;;;;7.53;4.17;;;11.50;99.90;;;;;;5062316;28;20209;-84
2022/11/03 16:34:26;;;;;;;9.80;4.10;;;11.50;99.90;;;;;;5061658;28;20627;-84
2022/11/03 16:36:52;;;;;;;7.77;4.20;;;11.50;99.90;;;;;;5061069;28;20181;-84
2022/11/03 16:39:17;;;;;;;6.50;4.30;;;11.50;99.90;;;;;;5062002;28;20169;-84
2022/11/03 16:41:43;;;;;;;7.40;3.80;;;11.50;99.90;;;;;;5060989;28;20231;-84
2022/11/03 16:44:09;;;;;;;6.83;3.93;;;11.50;99.90;;;;;;5064893;28;20552;-84
2022/11/03 16:46:34;;;;;;;4.83;3.70;;;11.50;99.90;;;;;;5060422;28;20639;-84
2022/11/03 16:49:00;;;;;;;5.50;3.23;;;11.50;99.90;;;;;;5062350;28;20223;-85
2022/11/03 16:51:27;;;;;;;10.07;4.00;;;11.40;99.90;;;;;;5061908;28;20208;-85
2022/11/03 16:53:55;;;;;;;9.10;3.50;;;11.40;99.90;;;;;;5060273;28;20200;-84
2022/11/03 16:56:21;;;;;;;5.63;3.43;;;11.40;99.90;;;;;;5060929;28;20174;-84
2022/11/03 16:58:47;;;;;;;60.60;30.03;;;11.40;99.90;;;;;;5063914;28;20253;-85
2022/11/03 17:01:13;;;;;;;50.00;24.57;;;11.30;99.90;;;;;;5063898;28;20182;-85
2022/11/03 17:03:38;;;;;;;37.37;19.17;;;11.30;99.90;;;;;;5064265;28;20280;-84
2022/11/03 17:06:04;;;;;;;101.37;48.60;;;11.30;99.90;;;;;;5063316;28;20191;-85
2022/11/03 17:08:30;;;;;;;43.40;21.10;;;11.30;99.90;;;;;;5063172;28;20189;-85
2022/11/03 17:10:55;;;;;;;30.37;15.17;;;11.20;99.90;;;;;;5063292;28;20248;-85
2022/11/03 17:13:21;;;;;;;39.67;20.63;;;11.20;99.90;;;;;;5062721;28;20679;-83
2022/11/03 17:15:47;;;;;;;48.50;26.73;;;11.30;99.90;;;;;;5063909;28;20182;-83
2022/11/03 17:18:12;;;;;;;50.33;27.97;;;11.30;99.90;;;;;;5064342;28;20239;-83
2022/11/03 17:20:38;;;;;;;11.90;7.57;;;11.20;99.90;;;;;;5064655;28;20174;-83
2022/11/03 17:23:04;;;;;;;9.77;6.43;;;11.20;99.90;;;;;;5063779;28;20209;-84
2022/11/03 17:25:30;;;;;;;13.17;8.03;;;11.30;99.90;;;;;;5062585;28;20273;-84
2022/11/03 17:27:58;;;;;;;10.30;7.23;;;11.20;99.90;;;;;;5061780;28;20258;-86
2022/11/03 17:30:26;;;;;;;8.43;4.77;;;11.20;99.90;;;;;;5062127;28;20186;-83
2022/11/03 17:33:00;;;;;;;5.80;4.20;;;11.20;99.90;;;;;;5062403;28;20248;-83
2022/11/03 17:35:32;;;;;;;9.50;4.33;;;11.20;99.90;;;;;;5062152;28;20204;-84
2022/11/03 17:37:59;;;;;;;6.97;3.80;;;11.20;99.90;;;;;;5063511;28;20259;-84
2022/11/03 17:40:25;;;;;;;6.07;3.97;;;11.20;99.90;;;;;;5063622;28;20653;-84
2022/11/03 17:42:52;;;;;;;7.07;4.00;;;11.20;99.90;;;;;;5062950;28;20232;-84
2022/11/03 17:45:21;;;;;;;6.63;4.30;;;11.20;99.90;;;;;;5061627;28;20628;-84
2022/11/03 17:47:48;;;;;;;8.20;4.20;;;11.20;99.90;;;;;;5062561;28;20173;-83
2022/11/03 17:50:16;;;;;;;5.60;3.80;;;11.30;99.90;;;;;;5061529;28;20263;-85
2022/11/03 17:52:44;;;;;;;7.43;4.50;;;11.30;99.90;;;;;;5061679;28;20209;-85
2022/11/03 17:55:31;;;;;;;6.20;4.20;;;11.30;99.90;;;;;;5061153;28;20181;-84
2022/11/03 17:57:59;;;;;;;8.83;4.17;;;11.30;99.90;;;;;;5060967;28;20208;-84
2022/11/03 18:00:25;;;;;;;6.27;5.00;;;11.30;99.90;;;;;;5060847;28;20177;-84
2022/11/03 18:02:52;;;;;;;8.43;4.70;;;11.30;99.90;;;;;;5060776;28;20284;-84
2022/11/03 18:05:29;;;;;;;7.20;4.20;;;11.30;99.90;;;;;;5061358;28;20182;-82
2022/11/03 18:08:00;;;;;;;8.43;4.53;;;11.30;99.90;;;;;;5060832;28;20219;-83
2022/11/03 18:10:31;;;;;;;86.60;41.70;;;11.30;99.90;;;;;;5062493;28;20169;-81
2022/11/03 18:13:19;;;;;;;12.27;6.40;;;11.30;99.90;;;;;;5093985;28;20244;-83
2022/11/03 18:15:57;;;;;;;14.00;8.73;;;11.30;99.90;;;;;;5066953;28;20198;-85
2022/11/03 18:18:36;;;;;;;12.83;9.07;;;11.30;99.90;;;;;;5062579;28;20501;-84
2022/11/03 18:21:03;;;;;;;12.30;8.13;;;11.30;99.90;;;;;;5061616;28;20197;-84
2022/11/03 18:23:33;;;;;;;10.47;7.97;;;11.30;99.90;;;;;;5062397;28;20197;-85
2022/11/03 18:26:12;;;;;;;14.63;10.33;;;11.20;99.90;;;;;;5061166;28;20248;-85
2022/11/03 18:28:38;;;;;;;14.23;9.60;;;11.20;99.90;;;;;;5062972;28;20260;-84
2022/11/03 18:31:08;;;;;;;15.40;8.77;;;11.20;99.90;;;;;;5060101;28;20248;-84
2022/11/03 18:33:35;;;;;;;17.70;10.77;;;11.20;99.90;;;;;;5060171;28;20243;-85
2022/11/03 18:36:03;;;;;;;13.90;8.90;;;11.10;99.90;;;;;;5093829;28;20590;-85
2022/11/03 18:38:29;;;;;;;14.93;9.17;;;11.10;99.90;;;;;;5059856;28;20189;-84
2022/11/03 18:40:55;;;;;;;16.00;8.47;;;11.10;99.90;;;;;;5059927;28;20205;-84
2022/11/03 18:43:24;;;;;;;12.27;8.67;;;11.10;99.90;;;;;;5060012;28;20215;-85
2022/11/03 18:45:51;;;;;;;12.23;8.70;;;11.00;99.90;;;;;;5060625;28;20173;-85
2022/11/03 18:48:20;;;;;;;12.13;8.97;;;11.00;99.90;;;;;;5059401;28;20269;-85
2022/11/03 18:50:54;;;;;;;13.03;9.30;;;11.00;99.90;;;;;;5061065;28;20178;-86
2022/11/03 18:53:22;;;;;;;16.60;9.40;;;11.00;99.90;;;;;;5074555;28;20196;-84
2022/11/03 18:55:48;;;;;;;17.03;11.20;;;10.90;99.90;;;;;;5063339;28;20178;-84
2022/11/03 18:58:21;;;;;;;19.37;11.53;;;10.90;99.90;;;;;;5059309;28;20700;-84
2022/11/03 19:00:47;;;;;;;17.27;9.60;;;10.90;99.90;;;;;;5060209;28;20170;-84
2022/11/03 19:03:18;;;;;;;17.10;10.50;;;10.90;99.90;;;;;;5050704;28;20261;-83
2022/11/03 19:05:46;;;;;;;16.97;11.47;;;10.90;99.90;;;;;;5058478;28;20176;-84
2022/11/03 19:08:27;;;;;;;22.03;11.97;;;10.90;99.90;;;;;;5058471;28;20173;-83
2022/11/03 19:10:54;;;;;;;16.07;11.00;;;10.90;99.90;;;;;;5057909;28;20161;-83
2022/11/03 19:13:43;;;;;;;20.13;12.83;;;10.80;99.90;;;;;;5071417;28;20198;-84
2022/11/03 19:16:16;;;;;;;25.03;15.10;;;10.80;99.90;;;;;;5040599;28;20172;-85
2022/11/03 19:18:43;;;;;;;18.90;13.00;;;10.70;99.90;;;;;;5058417;28;20180;-85
